Time;durP1;ratioP1;P1;durP2;ratioP2;P2;SDS_P1;SDS_P2;PMS_P1;PMS_P2;Temp;Humidity;BMP_temperature;BMP_pressure;BME280_temperature;BME280_humidity;BME280_pressure;Samples;Min_cycle;Max_cycle;Signal;HPM_P1;HPM_P2
2021/09/23 00:00:19;;;;;;;7.00;2.90;;;11.20;99.90;11.10;101230.00;;;;4973757;28;92930;-65
2021/09/23 00:05:17;;;;;;;3.63;2.83;;;11.10;99.90;11.00;101211.00;;;;4969495;28;109426;-64
2021/09/23 00:07:44;;;;;;;11.00;3.17;;;11.00;99.90;10.90;101206.00;;;;4973666;28;92883;-64
2021/09/23 00:10:14;;;;;;;4.53;3.20;;;11.00;99.90;10.90;101219.00;;;;4974395;28;92295;-64
2021/09/23 00:12:40;;;;;;;6.57;2.70;;;10.90;99.90;10.80;101216.00;;;;4969729;28;93487;-64
2021/09/23 00:15:07;;;;;;;9.37;3.07;;;10.90;99.90;10.80;101217.00;;;;4968076;28;93862;-64
2021/09/23 00:17:32;;;;;;;6.20;3.57;;;10.90;99.90;10.70;101213.00;;;;4972725;28;95379;-64
2021/09/23 00:19:58;;;;;;;4.60;2.13;;;10.80;99.90;10.70;101217.00;;;;4972291;28;108741;-64
2021/09/23 00:22:24;;;;;;;4.90;2.77;;;10.70;99.90;10.60;101219.00;;;;4975035;28;123926;-64
2021/09/23 00:24:50;;;;;;;6.27;3.10;;;10.70;99.90;10.50;101219.00;;;;4975711;28;122492;-64
2021/09/23 00:27:15;;;;;;;6.47;2.57;;;10.60;99.90;10.50;101206.00;;;;4975792;28;110781;-64
2021/09/23 00:29:41;;;;;;;9.53;3.27;;;10.50;99.90;10.40;101206.00;;;;4975986;28;108819;-64
2021/09/23 00:32:07;;;;;;;4.60;2.80;;;10.50;99.90;10.30;101215.00;;;;4975464;28;117968;-64
2021/09/23 00:34:33;;;;;;;7.33;2.80;;;10.50;99.90;10.30;101225.00;;;;4976354;28;92630;-64
2021/09/23 00:36:59;;;;;;;3.27;2.60;;;10.40;99.90;10.20;101223.00;;;;4975356;28;111690;-64
2021/09/23 00:39:25;;;;;;;5.20;3.13;;;10.30;99.90;10.20;101224.00;;;;4975578;28;110236;-64
2021/09/23 00:41:52;;;;;;;2.67;2.47;;;10.30;99.90;10.20;101236.00;;;;4975434;28;94277;-64
2021/09/23 00:44:21;;;;;;;5.50;3.27;;;10.30;99.90;10.30;101233.00;;;;4979513;28;109254;-64
2021/09/23 00:46:49;;;;;;;4.90;3.67;;;10.30;99.90;10.30;101224.00;;;;4977600;28;92813;-64
2021/09/23 00:49:16;;;;;;;7.97;3.27;;;10.30;99.90;10.40;101225.00;;;;4976000;28;92660;-64
2021/09/23 00:51:46;;;;;;;9.37;3.53;;;10.40;99.90;10.40;101216.00;;;;4975964;28;93324;-64
2021/09/23 00:54:11;;;;;;;7.03;3.73;;;10.40;99.90;10.50;101223.00;;;;4975125;28;113242;-64
2021/09/23 00:56:38;;;;;;;5.50;3.87;;;10.40;99.90;10.50;101211.00;;;;4975451;28;101647;-64
2021/09/23 00:59:04;;;;;;;8.13;4.23;;;10.50;99.90;10.50;101214.00;;;;4976935;28;92277;-64
2021/09/23 01:01:30;;;;;;;4.77;3.10;;;10.50;99.90;10.50;101217.00;;;;4976154;28;93708;-64
2021/09/23 01:03:56;;;;;;;9.10;4.30;;;10.50;99.90;10.40;101210.00;;;;4975813;28;92849;-64
2021/09/23 01:06:22;;;;;;;5.40;3.50;;;10.50;99.90;10.40;101205.00;;;;4974892;28;106935;-64
2021/09/23 01:08:59;;;;;;;5.83;3.53;;;10.40;99.90;10.30;101209.00;;;;4975836;28;93766;-65
2021/09/23 01:11:28;;;;;;;6.90;3.33;;;10.40;99.90;10.30;101200.00;;;;4976312;28;93988;-64
2021/09/23 01:13:54;;;;;;;6.37;3.10;;;10.50;99.90;10.30;101194.00;;;;4975390;28;93782;-64
2021/09/23 01:16:21;;;;;;;7.00;3.50;;;10.40;99.90;10.30;101192.00;;;;4975758;28;92887;-65
2021/09/23 01:18:46;;;;;;;6.20;3.80;;;10.30;99.90;10.20;101196.00;;;;4975995;28;92673;-64
2021/09/23 01:21:12;;;;;;;8.53;3.80;;;10.30;99.90;10.20;101198.00;;;;4974870;28;122453;-64
2021/09/23 01:23:40;;;;;;;5.30;3.10;;;10.30;99.90;10.20;101194.00;;;;4972290;28;123519;-64
2021/09/23 01:26:18;;;;;;;7.43;3.60;;;10.30;99.90;10.20;101182.00;;;;4975543;28;92741;-64
2021/09/23 01:28:43;;;;;;;9.83;5.17;;;10.30;99.90;10.20;101193.00;;;;4975722;28;92786;-64
2021/09/23 01:31:09;;;;;;;3.87;3.57;;;10.20;99.90;10.20;101191.00;;;;4974638;28;123717;-64
2021/09/23 01:33:36;;;;;;;5.07;4.00;;;10.20;99.90;10.10;101194.00;;;;4974517;28;111821;-64
2021/09/23 01:36:02;;;;;;;7.80;4.30;;;10.20;99.90;10.20;101182.00;;;;4975328;28;92882;-64
2021/09/23 01:38:29;;;;;;;5.60;4.07;;;10.20;99.90;10.20;101173.00;;;;4975424;28;93034;-64
2021/09/23 01:40:55;;;;;;;6.07;3.80;;;10.20;99.90;10.20;101166.00;;;;4975110;28;105281;-64
2021/09/23 01:43:23;;;;;;;6.97;4.00;;;10.20;99.90;10.30;101174.00;;;;4974626;28;93048;-64
2021/09/23 01:45:50;;;;;;;7.00;4.03;;;10.30;99.90;10.30;101163.00;;;;4975806;28;92779;-65
2021/09/23 01:48:16;;;;;;;8.37;3.73;;;10.30;99.90;10.30;101162.00;;;;4974692;28;106118;-64
2021/09/23 01:50:42;;;;;;;5.33;4.10;;;10.40;99.90;10.40;101155.00;;;;4975205;28;93789;-64
2021/09/23 01:53:08;;;;;;;7.63;3.90;;;10.40;99.90;10.40;101153.00;;;;4975132;28;93044;-64
2021/09/23 01:55:33;;;;;;;6.00;3.77;;;10.40;99.90;10.40;101142.00;;;;4975084;28;93793;-65
2021/09/23 01:58:00;;;;;;;5.87;4.00;;;10.50;99.90;10.50;101145.00;;;;4974437;28;108470;-65
2021/09/23 02:00:26;;;;;;;11.10;4.93;;;10.50;99.90;10.50;101146.00;;;;4973681;28;122406;-66
2021/09/23 02:02:54;;;;;;;5.93;3.93;;;10.50;99.90;10.50;101127.00;;;;4969022;28;121666;-64
2021/09/23 02:05:20;;;;;;;7.50;3.80;;;10.50;99.90;10.50;101125.00;;;;4972335;28;92765;-65
2021/09/23 02:07:46;;;;;;;5.23;4.60;;;10.50;99.90;10.50;101122.00;;;;4975023;28;92941;-66
2021/09/23 02:10:13;;;;;;;6.07;3.90;;;10.50;99.90;10.60;101130.00;;;;4975411;28;93932;-66
2021/09/23 02:12:39;;;;;;;5.93;3.87;;;10.60;99.90;10.60;101138.00;;;;4974743;28;100652;-65
2021/09/23 02:15:07;;;;;;;11.00;4.93;;;10.60;99.90;10.70;101125.00;;;;4974890;28;92665;-66
2021/09/23 02:17:33;;;;;;;6.57;4.87;;;10.60;99.90;10.70;101125.00;;;;4975032;28;92873;-66
2021/09/23 02:19:59;;;;;;;8.40;4.93;;;10.70;99.90;10.80;101130.00;;;;4973122;28;124468;-66
2021/09/23 02:22:25;;;;;;;5.60;4.23;;;10.70;99.90;10.80;101124.00;;;;4974239;28;94324;-66
2021/09/23 02:24:52;;;;;;;4.87;3.93;;;10.80;99.90;10.80;101118.00;;;;4975248;28;92869;-65
2021/09/23 02:27:19;;;;;;;7.10;3.80;;;10.80;99.90;10.80;101117.00;;;;4974935;28;92772;-66
2021/09/23 02:29:44;;;;;;;6.57;4.93;;;10.80;99.90;10.80;101110.00;;;;4974183;28;92997;-65
2021/09/23 02:32:10;;;;;;;9.23;4.37;;;10.80;99.90;10.80;101102.00;;;;4974678;28;93009;-65
2021/09/23 02:34:37;;;;;;;9.13;4.90;;;11.20;99.90;10.70;101100.00;;;;4974579;28;92963;-66
2021/09/23 02:37:03;;;;;;;5.70;3.70;;;10.70;99.90;10.60;101094.00;;;;4974059;28;109366;-66
2021/09/23 02:39:29;;;;;;;4.50;3.83;;;10.70;99.90;10.60;101082.00;;;;4972657;28;92854;-66
2021/09/23 02:41:55;;;;;;;7.13;5.30;;;10.70;99.90;10.60;101082.00;;;;4973267;28;122083;-67
2021/09/23 02:44:20;;;;;;;7.10;5.03;;;10.60;99.90;10.50;101080.00;;;;4972267;28;111685;-66
2021/09/23 02:46:47;;;;;;;4.47;4.00;;;10.60;99.90;10.50;101069.00;;;;4974931;28;92888;-66
2021/09/23 02:49:12;;;;;;;6.93;4.37;;;10.60;99.90;10.50;101069.00;;;;4973630;28;94079;-65
2021/09/23 02:51:38;;;;;;;11.17;5.10;;;10.50;99.90;10.50;101067.00;;;;4973412;28;122970;-66
2021/09/23 02:54:04;;;;;;;10.80;5.30;;;10.50;99.90;10.40;101059.00;;;;4973258;28;111335;-66
2021/09/23 02:56:30;;;;;;;7.17;4.70;;;10.50;99.90;10.40;101059.00;;;;4973691;28;108864;-66
2021/09/23 02:58:55;;;;;;;9.73;5.47;;;10.50;99.90;10.40;101047.00;;;;4974369;28;93037;-66
2021/09/23 03:01:22;;;;;;;8.33;5.00;;;10.40;99.90;10.40;101051.00;;;;4973189;28;123119;-65
2021/09/23 03:03:48;;;;;;;8.60;4.77;;;10.40;99.90;10.30;101065.00;;;;4975088;28;92807;-66
2021/09/23 03:06:14;;;;;;;13.27;4.73;;;10.40;99.90;10.30;101064.00;;;;4974423;28;93092;-66
2021/09/23 03:08:40;;;;;;;7.27;5.17;;;10.30;99.90;10.30;101074.00;;;;4973453;28;94873;-66
2021/09/23 03:11:06;;;;;;;7.70;4.97;;;10.30;99.90;10.30;101060.00;;;;4973612;28;117537;-66
2021/09/23 03:13:32;;;;;;;5.87;4.60;;;10.30;99.90;10.30;101070.00;;;;4972593;28;111017;-66
2021/09/23 03:15:57;;;;;;;11.90;4.87;;;10.30;99.90;10.20;101055.00;;;;4974078;28;92872;-65
2021/09/23 03:18:23;;;;;;;6.27;4.40;;;10.20;99.90;10.20;101059.00;;;;4972556;28;120228;-65
2021/09/23 03:20:49;;;;;;;8.53;4.73;;;10.20;99.90;10.10;101059.00;;;;4972451;28;123444;-65
2021/09/23 03:23:16;;;;;;;6.80;4.43;;;10.20;99.90;10.10;101049.00;;;;4961037;28;93074;-66
2021/09/23 03:25:43;;;;;;;6.47;4.40;;;10.10;99.90;10.00;101043.00;;;;4973898;28;92089;-66
2021/09/23 03:28:09;;;;;;;6.70;4.37;;;10.10;99.90;9.90;101035.00;;;;4972473;28;104097;-66
2021/09/23 03:30:35;;;;;;;8.90;5.53;;;10.00;99.90;9.90;101029.00;;;;4973721;28;92952;-66
2021/09/23 03:33:08;;;;;;;8.57;4.93;;;10.10;99.90;9.90;101033.00;;;;4973361;28;94279;-65
2021/09/23 03:35:35;;;;;;;6.33;4.60;;;10.00;99.90;9.90;101038.00;;;;4973981;28;92722;-65
2021/09/23 03:38:03;;;;;;;8.03;5.10;;;10.00;99.90;9.90;101032.00;;;;4973554;28;92763;-66
2021/09/23 03:40:29;;;;;;;9.17;5.67;;;10.00;99.90;9.90;101026.00;;;;4974085;28;96047;-65
2021/09/23 03:42:55;;;;;;;8.00;4.90;;;9.90;99.90;9.80;101020.00;;;;4973033;28;94806;-65
2021/09/23 03:45:23;;;;;;;6.90;5.43;;;9.90;99.90;9.80;101018.00;;;;4973280;28;92861;-65
2021/09/23 03:47:49;;;;;;;5.23;4.73;;;9.90;99.90;9.80;101021.00;;;;4972611;28;94083;-65
2021/09/23 03:50:16;;;;;;;7.50;4.80;;;9.80;99.90;9.80;101014.00;;;;4974191;28;92784;-65
2021/09/23 03:52:42;;;;;;;8.63;6.00;;;9.80;99.90;9.70;101007.00;;;;4969888;28;93019;-65
2021/09/23 03:55:08;;;;;;;10.20;5.40;;;9.80;99.90;9.70;101018.00;;;;4968438;28;92783;-65
2021/09/23 03:57:34;;;;;;;5.87;4.77;;;9.80;99.90;9.70;101006.00;;;;4968721;28;99759;-65
2021/09/23 04:00:00;;;;;;;9.00;5.93;;;9.70;99.90;9.70;101017.00;;;;4973432;28;94067;-65
2021/09/23 04:02:26;;;;;;;6.07;4.77;;;9.70;99.90;9.60;101015.00;;;;4973368;28;95442;-65
2021/09/23 04:04:51;;;;;;;11.97;5.93;;;9.70;99.90;9.60;101004.00;;;;4972691;28;110027;-65
2021/09/23 04:07:17;;;;;;;11.67;5.50;;;9.70;99.90;9.60;101001.00;;;;4972890;28;92967;-65
2021/09/23 04:09:43;;;;;;;9.50;6.23;;;9.60;99.90;9.50;100999.00;;;;4971882;28;122091;-65
2021/09/23 04:12:09;;;;;;;11.87;5.53;;;9.60;99.90;9.50;100994.00;;;;4973276;28;92750;-65
2021/09/23 04:14:35;;;;;;;7.37;4.73;;;9.50;99.90;9.50;101003.00;;;;4973820;28;92079;-65
2021/09/23 04:17:01;;;;;;;8.40;5.73;;;9.50;99.90;9.40;101002.00;;;;4972361;28;102831;-65
2021/09/23 04:19:27;;;;;;;7.90;5.17;;;9.50;99.90;9.40;100990.00;;;;4972283;28;108195;-65
2021/09/23 04:21:53;;;;;;;9.73;6.63;;;9.50;99.90;9.30;100982.00;;;;4973184;28;93871;-65
2021/09/23 04:24:19;;;;;;;7.83;5.83;;;9.40;99.90;9.30;100982.00;;;;4972786;28;92966;-65
2021/09/23 04:26:47;;;;;;;13.10;7.17;;;9.40;99.90;9.30;100983.00;;;;4968657;28;109069;-65
2021/09/23 04:29:13;;;;;;;10.90;6.00;;;9.30;99.90;9.30;100968.00;;;;4954290;28;92909;-65
2021/09/23 04:31:39;;;;;;;12.70;5.50;;;9.00;99.90;9.20;100970.00;;;;4972288;28;110363;-65
2021/09/23 04:34:04;;;;;;;9.23;5.57;;;9.30;99.90;9.20;100974.00;;;;4972201;28;103832;-66
2021/09/23 04:36:30;;;;;;;6.73;5.57;;;9.30;99.90;9.20;100968.00;;;;4971773;28;122559;-65
2021/09/23 04:38:56;;;;;;;7.43;6.30;;;9.30;99.90;9.20;100971.00;;;;4972240;28;112315;-65
2021/09/23 04:41:22;;;;;;;8.80;5.50;;;9.20;99.90;9.10;100960.00;;;;4972935;28;92868;-66
2021/09/23 04:43:48;;;;;;;10.80;6.30;;;9.20;99.90;9.10;100962.00;;;;4957560;28;92662;-65
2021/09/23 04:46:20;;;;;;;9.97;6.27;;;9.20;99.90;9.10;100965.00;;;;4971053;28;95086;-65
2021/09/23 04:48:51;;;;;;;8.87;6.17;;;9.20;99.90;9.00;100958.00;;;;4972806;28;93648;-65
2021/09/23 04:51:22;;;;;;;7.07;5.57;;;9.20;99.90;9.00;100967.00;;;;4960876;28;92912;-65
2021/09/23 04:53:48;;;;;;;8.27;5.57;;;9.10;99.90;9.00;100959.00;;;;4971349;28;92879;-65
2021/09/23 04:56:14;;;;;;;5.67;4.77;;;9.00;99.90;9.00;100965.00;;;;4961559;28;122496;-65
2021/09/23 04:58:40;;;;;;;8.10;5.53;;;9.10;99.90;8.90;100961.00;;;;4971543;28;104068;-66
2021/09/23 05:01:05;;;;;;;6.23;5.03;;;9.00;99.90;8.90;100955.00;;;;4973476;28;92881;-66
2021/09/23 05:03:31;;;;;;;6.50;5.13;;;9.00;99.90;8.90;100960.00;;;;4972129;28;109227;-65
2021/09/23 05:05:57;;;;;;;9.33;4.80;;;9.00;99.90;8.80;100953.00;;;;4971267;28;123583;-66
2021/09/23 05:08:23;;;;;;;10.17;5.27;;;8.90;99.90;8.80;100948.00;;;;4974506;28;94219;-65
2021/09/23 05:10:50;;;;;;;10.70;6.10;;;8.90;99.90;8.80;100947.00;;;;4975223;28;93644;-66
2021/09/23 05:13:16;;;;;;;8.80;6.37;;;8.90;99.90;8.70;100938.00;;;;4957948;28;92976;-65
2021/09/23 05:15:42;;;;;;;8.37;6.03;;;8.80;99.90;8.70;100937.00;;;;4975551;28;106481;-65
2021/09/23 05:18:09;;;;;;;8.27;5.23;;;8.80;99.90;8.80;100948.00;;;;4975659;28;93623;-65
2021/09/23 05:20:35;;;;;;;7.17;5.77;;;8.80;99.90;8.80;100953.00;;;;4976324;28;92746;-66
2021/09/23 05:23:01;;;;;;;7.43;5.67;;;8.80;99.90;8.80;100952.00;;;;4975883;28;92891;-65
2021/09/23 05:25:27;;;;;;;5.90;5.30;;;8.90;99.90;8.80;100955.00;;;;4973297;28;93852;-65
2021/09/23 05:27:54;;;;;;;10.10;5.93;;;8.90;99.90;8.90;100961.00;;;;4975759;28;93289;-65
2021/09/23 05:30:20;;;;;;;11.83;5.77;;;8.90;99.90;8.90;100951.00;;;;4975632;28;95763;-65
2021/09/23 05:32:46;;;;;;;8.47;6.23;;;8.90;99.90;8.90;100948.00;;;;4975098;28;108914;-65
2021/09/23 05:35:12;;;;;;;9.10;6.23;;;9.00;99.90;9.00;100939.00;;;;4974420;28;100254;-66
2021/09/23 05:37:38;;;;;;;8.60;6.10;;;9.10;99.90;9.10;100942.00;;;;4973835;28;94039;-65
2021/09/23 05:40:06;;;;;;;11.80;6.77;;;9.10;99.90;9.10;100942.00;;;;4975892;28;92851;-66
2021/09/23 05:42:32;;;;;;;11.87;6.33;;;9.20;99.90;9.20;100932.00;;;;4967288;28;92693;-65
2021/09/23 05:44:58;;;;;;;12.20;7.77;;;9.20;99.90;9.30;100923.00;;;;4974794;28;93906;-65
2021/09/23 05:47:23;;;;;;;9.37;6.73;;;9.30;99.90;9.40;100929.00;;;;4974546;28;122985;-65
2021/09/23 05:49:49;;;;;;;9.83;7.10;;;9.40;99.90;9.50;100931.00;;;;4974159;28;110194;-65
2021/09/23 05:52:16;;;;;;;9.83;7.40;;;9.50;99.90;9.70;100933.00;;;;4976291;28;91970;-65
2021/09/23 05:54:43;;;;;;;14.97;8.03;;;9.60;99.90;9.80;100933.00;;;;4974447;28;94134;-65
2021/09/23 05:57:09;;;;;;;9.40;7.30;;;9.80;99.90;9.90;100932.00;;;;4974997;28;107234;-65
2021/09/23 05:59:35;;;;;;;8.70;6.83;;;9.90;99.90;10.00;100928.00;;;;4973125;28;110509;-65
2021/09/23 06:02:00;;;;;;;19.53;7.77;;;10.00;99.90;10.20;100921.00;;;;4975593;28;92756;-65
2021/09/23 06:04:27;;;;;;;11.33;6.70;;;10.20;99.90;10.40;100925.00;;;;4965577;28;123561;-65
2021/09/23 06:06:53;;;;;;;11.60;6.27;;;10.30;99.90;10.50;100918.00;;;;4975513;28;92927;-65
2021/09/23 06:09:21;;;;;;;7.17;6.00;;;10.50;99.90;10.70;100929.00;;;;4975053;28;92996;-65
2021/09/23 06:11:47;;;;;;;10.33;7.00;;;10.70;99.90;11.00;100924.00;;;;4975474;28;92676;-65
2021/09/23 06:14:13;;;;;;;8.27;5.90;;;10.90;99.90;11.20;100943.00;;;;4970759;28;122602;-65
2021/09/23 06:16:39;;;;;;;8.53;5.67;;;11.10;99.90;11.50;100933.00;;;;4973997;28;93305;-65
2021/09/23 06:19:04;;;;;;;9.37;6.00;;;11.30;99.90;11.70;100939.00;;;;4973225;28;109540;-65
2021/09/23 06:21:30;;;;;;;7.20;5.30;;;11.60;99.90;11.80;100928.00;;;;4974089;28;103946;-65
2021/09/23 06:23:56;;;;;;;6.77;5.17;;;11.80;99.90;12.00;100934.00;;;;4965761;28;94251;-66
2021/09/23 06:26:23;;;;;;;9.57;5.53;;;11.80;99.90;12.10;100936.00;;;;4973369;28;122376;-65
2021/09/23 06:28:49;;;;;;;9.63;4.63;;;12.10;99.90;12.30;100937.00;;;;4974362;28;92841;-65
2021/09/23 06:31:14;;;;;;;7.67;5.27;;;12.20;99.90;12.50;100931.00;;;;4973919;28;109159;-65
2021/09/23 06:33:40;;;;;;;5.70;4.03;;;12.40;99.90;12.60;100927.00;;;;4973142;28;123323;-65
2021/09/23 06:36:06;;;;;;;8.80;4.57;;;12.60;99.90;12.70;100924.00;;;;4973847;28;122165;-65
2021/09/23 06:38:32;;;;;;;6.73;4.50;;;12.70;99.90;12.80;100918.00;;;;4974708;28;93009;-65
2021/09/23 06:40:58;;;;;;;7.53;4.27;;;12.80;99.90;13.00;100915.00;;;;4974199;28;109669;-65
2021/09/23 06:43:24;;;;;;;5.03;4.10;;;12.90;99.90;13.20;100911.00;;;;4973804;28;93807;-65
2021/09/23 06:45:50;;;;;;;6.73;4.10;;;13.10;99.90;13.40;100910.00;;;;4973196;28;123862;-65
2021/09/23 06:48:16;;;;;;;6.73;3.53;;;13.30;99.90;13.50;100905.00;;;;4973587;28;110853;-65
2021/09/23 06:50:42;;;;;;;4.23;3.37;;;13.40;99.90;13.60;100915.00;;;;4973634;28;106323;-65
2021/09/23 06:53:07;;;;;;;7.60;4.50;;;13.50;99.90;13.70;100909.00;;;;4972850;28;122604;-66
2021/09/23 06:55:33;;;;;;;6.40;3.90;;;13.70;99.90;13.90;100905.00;;;;4973702;28;115929;-66
2021/09/23 06:57:59;;;;;;;4.40;2.73;;;13.80;99.90;14.10;100894.00;;;;4974122;28;93025;-65
2021/09/23 07:00:26;;;;;;;4.27;3.03;;;14.00;99.90;14.30;100891.00;;;;4973895;28;108583;-65
2021/09/23 07:02:52;;;;;;;4.10;3.43;;;14.20;99.90;14.50;100896.00;;;;4969179;28;93914;-65
2021/09/23 07:05:18;;;;;;;5.77;3.83;;;14.30;99.90;14.70;100889.00;;;;4970837;28;100044;-65
2021/09/23 07:07:44;;;;;;;4.13;3.13;;;14.50;99.90;14.80;100888.00;;;;4972707;28;111738;-64
2021/09/23 07:10:10;;;;;;;3.53;2.57;;;14.70;99.90;15.00;100895.00;;;;4974360;28;92872;-65
2021/09/23 07:12:36;;;;;;;3.97;2.70;;;14.80;99.90;15.00;100888.00;;;;4973422;28;93783;-65
2021/09/23 07:15:04;;;;;;;5.90;3.03;;;14.90;99.90;15.00;100895.00;;;;4973486;28;93830;-65
2021/09/23 07:17:31;;;;;;;4.47;2.70;;;14.90;99.90;15.00;100897.00;;;;4974175;28;92717;-64
2021/09/23 07:19:56;;;;;;;4.37;3.23;;;15.00;99.90;15.00;100900.00;;;;4974935;28;92707;-64
2021/09/23 07:22:22;;;;;;;3.90;3.50;;;15.00;99.90;15.00;100889.00;;;;4973075;28;107794;-65
2021/09/23 07:24:48;;;;;;;3.40;3.00;;;15.00;99.90;15.10;100877.00;;;;4973637;28;93587;-64
2021/09/23 07:27:14;;;;;;;3.50;3.07;;;15.00;99.90;15.10;100876.00;;;;4974288;28;92692;-65
2021/09/23 07:29:39;;;;;;;4.90;3.53;;;15.00;99.90;15.20;100879.00;;;;4973453;28;97618;-64
2021/09/23 07:32:06;;;;;;;7.13;2.63;;;15.10;99.90;15.20;100877.00;;;;4972390;28;122848;-64
2021/09/23 07:34:32;;;;;;;3.78;3.08;;;15.20;99.90;15.30;100873.00;;;;4975694;28;95254;-65
2021/09/23 07:36:57;;;;;;;2.50;2.20;;;15.20;99.90;15.40;100876.00;;;;4954384;28;93642;-64
2021/09/23 07:39:23;;;;;;;3.72;2.97;;;15.20;99.90;15.40;100870.00;;;;4953375;28;102503;-64
2021/09/23 07:41:49;;;;;;;3.97;2.50;;;15.30;99.90;15.40;100868.00;;;;4954074;28;123037;-64
2021/09/23 07:44:15;;;;;;;4.30;3.22;;;15.30;99.90;15.40;100867.00;;;;4968355;28;93680;-64
2021/09/23 07:46:42;;;;;;;5.68;2.75;;;15.40;99.90;15.40;100866.00;;;;4973776;28;92741;-65
2021/09/23 07:49:08;;;;;;;4.85;3.05;;;15.40;99.90;15.50;100871.00;;;;4973377;28;92889;-65
2021/09/23 07:51:35;;;;;;;3.83;3.25;;;15.40;99.90;15.50;100865.00;;;;4965004;28;123504;-64
2021/09/23 07:54:01;;;;;;;4.23;3.10;;;15.40;99.90;15.50;100861.00;;;;4953692;28;105230;-64
2021/09/23 07:56:27;;;;;;;6.80;2.95;;;15.40;99.90;15.60;100860.00;;;;4952205;28;92925;-65
2021/09/23 07:58:53;;;;;;;4.10;3.28;;;15.40;99.90;15.50;100851.00;;;;4954040;28;92698;-64
2021/09/23 08:01:18;;;;;;;4.70;3.20;;;15.50;99.90;15.60;100847.00;;;;4959084;28;123611;-65
2021/09/23 08:03:44;;;;;;;4.93;3.10;;;15.50;99.90;15.70;100831.00;;;;4963103;28;123106;-64
2021/09/23 08:06:10;;;;;;;3.38;3.08;;;15.60;99.90;15.90;100838.00;;;;4953451;28;96373;-64
2021/09/23 08:08:36;;;;;;;4.18;2.55;;;15.70;99.90;16.10;100846.00;;;;4953841;28;93156;-65
2021/09/23 08:11:02;;;;;;;3.97;2.70;;;15.90;99.90;16.30;100846.00;;;;4953154;28;94006;-65
2021/09/23 08:13:28;;;;;;;2.65;2.45;;;16.10;99.90;16.50;100848.00;;;;4963974;28;122658;-65
2021/09/23 08:15:54;;;;;;;3.20;2.65;;;16.30;99.90;16.60;100844.00;;;;4969804;28;110268;-65
2021/09/23 08:18:20;;;;;;;5.18;2.72;;;15.90;99.90;16.80;100835.00;;;;4973707;28;92282;-64
2021/09/23 08:20:49;;;;;;;4.07;2.38;;;16.60;99.90;17.00;100822.00;;;;4972264;28;123103;-65
2021/09/23 08:23:17;;;;;;;5.53;2.47;;;16.80;99.90;17.20;100814.00;;;;4972267;28;122107;-65
2021/09/23 08:25:43;;;;;;;3.50;2.72;;;17.00;99.90;17.40;100814.00;;;;4972337;28;93799;-64
2021/09/23 08:28:12;;;;;;;3.33;2.80;;;17.20;99.90;17.70;100811.00;;;;4972830;28;92651;-66
2021/09/23 08:30:38;;;;;;;3.70;2.30;;;17.40;99.90;17.90;100792.00;;;;4972882;28;93068;-66
2021/09/23 08:33:04;;;;;;;8.20;3.60;;;17.70;99.90;18.10;100797.00;;;;4955061;28;93009;-66
2021/09/23 08:35:30;;;;;;;2.95;2.22;;;17.90;99.90;18.10;100793.00;;;;4952708;28;110504;-66
2021/09/23 08:37:57;;;;;;;3.90;2.83;;;17.90;99.90;18.20;100788.00;;;;4953434;28;92998;-65
2021/09/23 08:40:22;;;;;;;3.40;2.65;;;18.10;99.90;18.30;100780.00;;;;4952452;28;110869;-64
2021/09/23 08:42:48;;;;;;;4.20;2.65;;;18.20;99.90;18.50;100778.00;;;;4954258;28;123499;-64
2021/09/23 08:45:17;;;;;;;2.88;2.53;;;18.30;99.90;18.70;100773.00;;;;4964815;28;110521;-64
2021/09/23 08:47:45;;;;;;;3.65;2.72;;;18.50;97.00;18.80;100760.00;;;;4960674;28;92982;-64
2021/09/23 08:50:13;;;;;;;3.47;2.10;;;18.60;96.60;18.80;100778.00;;;;4955380;28;102588;-64
2021/09/23 08:52:39;;;;;;;3.42;2.33;;;18.70;97.20;19.00;100767.00;;;;4956250;28;93865;-64
2021/09/23 08:55:07;;;;;;;4.38;2.25;;;18.80;97.50;19.20;100773.00;;;;4957817;28;92798;-64
2021/09/23 08:57:33;;;;;;;4.35;2.22;;;19.00;96.70;19.40;100778.00;;;;4956568;28;92685;-63
2021/09/23 09:00:09;;;;;;;2.35;1.73;;;19.20;96.20;19.60;100778.00;;;;4962335;28;93831;-63
2021/09/23 09:02:35;;;;;;;3.08;2.08;;;19.40;95.00;19.70;100766.00;;;;4936088;28;94175;-64
2021/09/23 09:05:01;;;;;;;2.65;2.45;;;19.50;95.20;19.90;100776.00;;;;4934148;28;111020;-64
2021/09/23 09:07:28;;;;;;;3.03;2.28;;;20.00;93.50;20.00;100772.00;;;;4953483;28;108692;-64
2021/09/23 09:10:08;;;;;;;5.97;2.15;;;19.80;93.10;20.00;100766.00;;;;4960936;28;92833;-65
2021/09/23 09:12:35;;;;;;;3.22;2.35;;;19.90;92.70;20.20;100766.00;;;;4973855;28;93219;-65
2021/09/23 09:15:02;;;;;;;4.80;2.20;;;20.00;92.50;20.40;100759.00;;;;4984820;28;93762;-64
2021/09/23 09:17:35;;;;;;;3.25;1.90;;;20.20;92.40;20.60;100762.00;;;;4976092;28;92445;-69
2021/09/23 09:20:04;;;;;;;1.70;1.60;;;20.40;92.20;20.80;100751.00;;;;4974139;28;93300;-68
2021/09/23 09:22:33;;;;;;;3.30;2.25;;;20.60;90.90;20.90;100748.00;;;;4975563;28;93500;-68
2021/09/23 09:25:10;;;;;;;2.15;1.73;;;20.70;88.60;21.00;100742.00;;;;4975855;28;92806;-68
2021/09/23 09:27:45;;;;;;;3.08;1.90;;;20.80;88.30;21.10;100721.00;;;;4974377;28;92777;-68
2021/09/23 09:30:15;;;;;;;4.32;2.10;;;20.90;85.70;21.30;100726.00;;;;4956594;28;93604;-68
2021/09/23 09:32:45;;;;;;;4.53;2.25;;;21.00;81.90;21.20;100715.00;;;;4955052;28;101481;-68
2021/09/23 09:35:30;;;;;;;3.10;2.67;;;21.10;82.20;21.30;100707.00;;;;4956097;28;92744;-68
2021/09/23 09:37:59;;;;;;;2.17;1.73;;;21.10;82.30;21.40;100718.00;;;;4954084;28;92730;-68
2021/09/23 09:40:33;;;;;;;3.17;2.17;;;21.20;81.10;21.60;100703.00;;;;4954922;28;95334;-68
2021/09/23 09:43:05;;;;;;;2.58;1.77;;;21.30;77.70;21.60;100702.00;;;;4959596;28;94626;-70
2021/09/23 09:45:31;;;;;;;3.42;2.17;;;21.40;78.80;21.70;100704.00;;;;4973437;28;92579;-67
2021/09/23 09:47:58;;;;;;;5.80;2.80;;;21.50;78.70;21.90;100699.00;;;;4968718;28;92887;-70
2021/09/23 09:50:31;;;;;;;1.73;1.60;;;21.60;77.10;22.10;100689.00;;;;4975097;28;93951;-70
2021/09/23 09:53:02;;;;;;;2.50;1.60;;;21.80;76.50;22.20;100677.00;;;;4971948;28;93049;-69
2021/09/23 09:55:33;;;;;;;1.98;1.70;;;22.00;73.60;22.30;100659.00;;;;4973315;28;92753;-70
2021/09/23 09:58:00;;;;;;;1.73;1.63;;;22.00;73.70;22.30;100668.00;;;;4965205;28;92029;-69
2021/09/23 10:00:28;;;;;;;3.53;1.90;;;22.10;73.10;22.20;100660.00;;;;4953835;28;93215;-70
2021/09/23 10:02:54;;;;;;;4.03;2.15;;;22.10;70.60;22.10;100658.00;;;;4953115;28;92936;-69
2021/09/23 10:05:21;;;;;;;8.40;1.88;;;21.90;69.00;21.90;100655.00;;;;4955605;28;94078;-69
2021/09/23 10:07:50;;;;;;;2.08;1.77;;;21.80;69.50;21.70;100652.00;;;;4955697;28;92680;-69
2021/09/23 10:10:25;;;;;;;1.50;1.13;;;21.60;70.50;21.70;100644.00;;;;4952863;28;93101;-69
2021/09/23 10:13:00;;;;;;;2.25;1.13;;;21.50;69.00;21.70;100637.00;;;;4944773;28;92948;-69
2021/09/23 10:15:26;;;;;;;1.65;1.40;;;21.50;68.60;21.80;100632.00;;;;4955730;28;92985;-69
2021/09/23 10:17:55;;;;;;;1.52;1.20;;;21.50;69.40;22.00;100641.00;;;;4955183;28;92744;-69
2021/09/23 10:20:24;;;;;;;1.50;1.13;;;21.70;69.50;22.20;100641.00;;;;4956063;28;93706;-68
2021/09/23 10:22:50;;;;;;;1.52;1.17;;;21.90;69.40;22.50;100622.00;;;;4935407;28;93011;-69
2021/09/23 10:25:24;;;;;;;2.17;1.30;;;22.10;68.20;22.50;100622.00;;;;4945165;28;92904;-69
2021/09/23 10:28:00;;;;;;;1.10;0.98;;;22.30;66.90;22.50;100614.00;;;;4968669;28;93056;-69
2021/09/23 10:30:30;;;;;;;2.53;0.98;;;22.30;66.90;22.40;100623.00;;;;4969905;28;93955;-68
2021/09/23 10:32:58;;;;;;;1.35;0.90;;;22.20;65.80;22.20;100616.00;;;;4971777;28;105273;-68
2021/09/23 10:35:24;;;;;;;3.55;1.48;;;22.00;65.80;22.10;100616.00;;;;4974395;28;93046;-68
2021/09/23 10:37:53;;;;;;;1.23;1.13;;;22.00;67.20;22.10;100617.00;;;;4974516;28;93079;-69
2021/09/23 10:40:20;;;;;;;3.50;1.38;;;21.90;64.00;22.20;100596.00;;;;4972914;28;93196;-69
2021/09/23 10:42:49;;;;;;;4.82;1.20;;;22.00;63.20;22.20;100602.00;;;;4954002;28;93610;-68
2021/09/23 10:45:17;;;;;;;2.22;1.10;;;22.00;62.80;22.50;100605.00;;;;4966103;28;93299;-68
2021/09/23 10:47:49;;;;;;;5.68;1.13;;;22.20;62.90;22.60;100610.00;;;;4973252;28;92150;-69